createdAt,value
2023-01-01T00:00:12.194Z,99.90
2023-01-01T00:02:44.243Z,99.90
2023-01-01T00:05:18.970Z,99.90
2023-01-01T00:07:50.951Z,99.70
2023-01-01T00:10:29.745Z,99.10
2023-01-01T00:13:01.477Z,98.60
2023-01-01T00:15:33.237Z,98.00
2023-01-01T00:18:04.901Z,97.40
2023-01-01T00:20:36.492Z,96.80
2023-01-01T00:23:08.227Z,96.30
2023-01-01T00:25:41.319Z,95.70
2023-01-01T00:28:14.164Z,95.30
2023-01-01T00:30:51.680Z,95.10
2023-01-01T00:33:31.057Z,94.80
2023-01-01T00:36:06.371Z,94.50
2023-01-01T00:38:38.955Z,94.00
2023-01-01T00:41:13.191Z,93.50
2023-01-01T00:43:48.257Z,93.20
2023-01-01T00:46:20.159Z,93.00
2023-01-01T00:48:51.936Z,92.90
2023-01-01T00:51:23.564Z,92.90
2023-01-01T00:53:55.404Z,93.00
2023-01-01T00:56:29.016Z,93.00
2023-01-01T00:59:02.531Z,92.90
2023-01-01T01:01:34.891Z,92.80
2023-01-01T01:04:07.017Z,92.70
2023-01-01T01:06:41.270Z,92.60
2023-01-01T01:09:13.753Z,92.50
2023-01-01T01:12:28.437Z,92.50
2023-01-01T01:15:07.087Z,92.30
2023-01-01T01:17:40.667Z,92.10
2023-01-01T01:20:18.058Z,91.90
2023-01-01T01:23:12.610Z,91.50
2023-01-01T01:28:40.366Z,91.40
2023-01-01T01:34:47.312Z,91.40
2023-01-01T01:37:54.306Z,91.40
2023-01-01T01:40:39.205Z,91.50
2023-01-01T01:43:44.207Z,91.50
2023-01-01T01:46:34.862Z,91.50
2023-01-01T01:55:20.907Z,91.90
2023-01-01T01:58:19.958Z,91.90
2023-01-01T02:04:01.955Z,91.40
2023-01-01T02:06:38.596Z,91.20
2023-01-01T02:09:31.495Z,91.00
2023-01-01T02:12:04.473Z,90.60
2023-01-01T02:14:36.164Z,90.20
2023-01-01T02:17:15.073Z,89.80
2023-01-01T02:19:57.368Z,89.40
2023-01-01T02:22:34.218Z,89.20
2023-01-01T02:25:11.523Z,89.00
2023-01-01T02:27:48.729Z,89.20
2023-01-01T02:30:21.920Z,89.90
2023-01-01T02:32:56.953Z,90.10
2023-01-01T02:35:50.086Z,90.00
2023-01-01T02:38:26.970Z,89.60
2023-01-01T02:41:00.364Z,89.50
2023-01-01T02:43:32.176Z,89.90
2023-01-01T02:46:07.336Z,89.80
2023-01-01T02:48:40.375Z,89.90
2023-01-01T02:51:16.714Z,89.40
2023-01-01T02:53:51.987Z,88.40
2023-01-01T02:56:26.891Z,87.90
2023-01-01T02:59:21.250Z,88.00
2023-01-01T03:01:58.648Z,88.20
2023-01-01T03:04:34.837Z,88.80
2023-01-01T03:07:12.633Z,89.80
2023-01-01T03:09:50.361Z,90.40
2023-01-01T03:12:25.315Z,90.70
2023-01-01T03:14:58.468Z,91.00
2023-01-01T03:17:33.091Z,91.40
2023-01-01T03:20:07.610Z,91.50
2023-01-01T03:25:12.059Z,92.20
2023-01-01T03:27:46.479Z,92.50
2023-01-01T03:30:20.069Z,92.70
2023-01-01T03:33:00.606Z,92.80
2023-01-01T03:35:35.975Z,92.70
2023-01-01T03:38:10.660Z,92.50
2023-01-01T03:40:44.126Z,92.40
2023-01-01T03:43:19.122Z,92.50
2023-01-01T03:45:51.959Z,92.50
2023-01-01T03:48:24.895Z,92.60
2023-01-01T03:50:58.732Z,92.80
2023-01-01T03:53:36.311Z,93.10
2023-01-01T03:56:13.583Z,93.50
2023-01-01T03:58:49.475Z,93.90
2023-01-01T04:01:23.696Z,94.30
2023-01-01T04:03:57.115Z,94.60
2023-01-01T04:06:28.816Z,95.00
2023-01-01T04:09:01.690Z,95.40
2023-01-01T04:11:52.131Z,95.90
2023-01-01T04:14:27.680Z,96.20
2023-01-01T04:16:59.912Z,96.60
2023-01-01T04:19:33.035Z,96.80
2023-01-01T04:22:04.784Z,97.10
2023-01-01T04:24:36.407Z,97.20
2023-01-01T04:27:08.249Z,97.50
2023-01-01T04:29:41.770Z,97.70
2023-01-01T04:32:13.572Z,97.90
2023-01-01T04:34:46.487Z,97.90
2023-01-01T04:37:18.125Z,98.00
2023-01-01T04:39:49.698Z,98.20
2023-01-01T04:42:21.352Z,98.40
2023-01-01T04:44:52.955Z,98.60
2023-01-01T04:47:26.787Z,98.80
2023-01-01T04:49:59.751Z,98.90
2023-01-01T04:52:31.343Z,98.90
2023-01-01T04:55:03.082Z,99.00
2023-01-01T04:57:34.700Z,99.00
2023-01-01T05:00:06.977Z,98.80
2023-01-01T05:02:38.819Z,98.90
2023-01-01T05:05:11.795Z,98.80
2023-01-01T05:07:43.466Z,98.90
2023-01-01T05:10:15.121Z,99.00
2023-01-01T05:12:46.714Z,99.10
2023-01-01T05:15:18.281Z,99.40
2023-01-01T05:17:49.878Z,99.70
2023-01-01T05:20:22.830Z,99.90
2023-01-01T05:22:54.443Z,99.90
2023-01-01T05:25:26.509Z,99.90
2023-01-01T05:27:58.200Z,99.90
2023-01-01T05:30:29.928Z,99.90
2023-01-01T05:33:01.586Z,99.90
2023-01-01T05:35:34.660Z,99.90
2023-01-01T05:38:06.293Z,99.90
2023-01-01T05:40:38.531Z,99.90
2023-01-01T05:43:10.105Z,99.90
2023-01-01T05:45:41.746Z,99.90
2023-01-01T05:48:13.372Z,99.90
2023-01-01T05:50:46.347Z,99.90
2023-01-01T05:53:17.919Z,99.90
2023-01-01T05:55:52.527Z,99.90
2023-01-01T05:58:24.168Z,99.90
2023-01-01T06:00:55.931Z,99.90
2023-01-01T06:03:27.539Z,99.90
2023-01-01T06:06:04.135Z,99.90
2023-01-01T06:08:35.835Z,99.90
2023-01-01T06:11:08.272Z,99.90
2023-01-01T06:13:39.990Z,99.90
2023-01-01T06:16:11.829Z,99.90
2023-01-01T06:18:44.027Z,99.90
2023-01-01T06:21:17.612Z,99.90
2023-01-01T06:23:49.258Z,99.90
2023-01-01T06:26:21.939Z,99.90
2023-01-01T06:28:53.557Z,99.90
2023-01-01T06:31:25.736Z,99.90
2023-01-01T06:33:57.844Z,99.90
2023-01-01T06:36:30.829Z,99.90
2023-01-01T06:39:03.569Z,99.90
2023-01-01T06:41:35.231Z,99.90
2023-01-01T06:44:06.835Z,99.90
2023-01-01T06:46:38.592Z,99.90
2023-01-01T06:49:11.401Z,99.90
2023-01-01T06:51:44.431Z,99.90
2023-01-01T06:54:16.103Z,99.90
2023-01-01T06:56:47.777Z,99.90
2023-01-01T06:59:19.390Z,99.90
2023-01-01T07:01:51.105Z,99.90
2023-01-01T07:04:22.969Z,99.90
2023-01-01T07:06:55.971Z,99.90
2023-01-01T07:09:27.538Z,99.90
2023-01-01T07:11:59.120Z,99.90
2023-01-01T07:14:30.683Z,99.90
2023-01-01T07:17:02.411Z,99.90
2023-01-01T07:19:34.066Z,99.90
2023-01-01T07:22:10.177Z,99.90
2023-01-01T07:24:41.844Z,99.90
2023-01-01T07:27:13.466Z,99.90
2023-01-01T07:29:45.076Z,99.90
2023-01-01T07:32:16.786Z,99.90
2023-01-01T07:34:50.782Z,99.90
2023-01-01T07:37:26.231Z,99.90
2023-01-01T07:39:57.810Z,99.90
2023-01-01T07:42:29.477Z,99.90
2023-01-01T07:45:01.052Z,99.90
2023-01-01T07:47:33.027Z,99.90
2023-01-01T07:50:05.101Z,99.90
2023-01-01T07:52:38.010Z,99.90
2023-01-01T07:55:12.074Z,99.90
2023-01-01T07:57:44.195Z,99.90
2023-01-01T08:00:17.024Z,99.90
2023-01-01T08:02:48.985Z,99.90
2023-01-01T08:05:26.252Z,99.90
2023-01-01T08:07:59.966Z,99.90
2023-01-01T08:10:31.699Z,99.90
2023-01-01T08:13:04.388Z,99.90
2023-01-01T08:15:36.108Z,99.80
2023-01-01T08:18:07.789Z,99.90
2023-01-01T08:20:39.420Z,99.90
2023-01-01T08:23:12.354Z,99.90
2023-01-01T08:25:43.983Z,99.80
2023-01-01T08:28:15.541Z,99.80
2023-01-01T08:30:47.134Z,99.70
2023-01-01T08:33:18.716Z,99.70
2023-01-01T08:35:54.006Z,99.50
2023-01-01T08:38:27.662Z,99.70
2023-01-01T08:40:59.277Z,99.70
2023-01-01T08:43:30.841Z,99.80
2023-01-01T08:46:02.436Z,99.90
2023-01-01T08:48:34.022Z,99.90
2023-01-01T08:51:05.869Z,99.90
2023-01-01T08:53:38.860Z,99.90
2023-01-01T08:56:11.181Z,99.90
2023-01-01T08:58:43.355Z,99.90
2023-01-01T09:01:15.150Z,99.90
2023-01-01T09:03:46.751Z,99.90
2023-01-01T09:06:18.351Z,99.90
2023-01-01T09:08:51.519Z,99.90
2023-01-01T09:11:24.167Z,99.90
2023-01-01T09:13:55.749Z,99.90
2023-01-01T09:16:27.520Z,99.90
2023-01-01T09:18:59.173Z,99.90
2023-01-01T09:21:30.791Z,99.90
2023-01-01T09:24:04.194Z,99.90
2023-01-01T09:26:35.777Z,99.90
2023-01-01T09:29:07.366Z,99.90
2023-01-01T09:31:38.987Z,99.90
2023-01-01T09:34:10.625Z,99.90
2023-01-01T09:36:42.375Z,99.90
2023-01-01T09:39:15.891Z,99.90
2023-01-01T09:41:58.776Z,99.90
2023-01-01T09:44:38.775Z,99.90
2023-01-01T09:47:16.817Z,99.90
2023-01-01T09:49:49.135Z,99.90
2023-01-01T09:52:21.315Z,99.90
2023-01-01T09:54:57.005Z,99.90
2023-01-01T09:57:29.784Z,99.90
2023-01-01T10:00:01.679Z,99.90
2023-01-01T10:02:39.506Z,99.90
2023-01-01T10:05:17.257Z,99.90
2023-01-01T10:07:50.527Z,99.90
2023-01-01T10:10:30.180Z,99.90
2023-01-01T10:13:05.206Z,99.90
2023-01-01T10:15:39.200Z,99.90
2023-01-01T10:18:17.192Z,99.90
2023-01-01T10:20:50.731Z,99.90
2023-01-01T10:23:24.149Z,99.90
2023-01-01T10:25:58.009Z,99.90
2023-01-01T10:28:32.593Z,99.90
2023-01-01T10:31:20.173Z,99.90
2023-01-01T10:33:51.909Z,99.90
2023-01-01T10:36:24.607Z,99.90
2023-01-01T10:38:56.176Z,99.90
2023-01-01T10:41:29.284Z,99.90
2023-01-01T10:44:00.909Z,99.90
2023-01-01T10:46:34.919Z,99.90
2023-01-01T10:49:07.598Z,99.90
2023-01-01T10:51:44.540Z,99.90
2023-01-01T10:54:31.150Z,99.90
2023-01-01T10:57:16.313Z,99.90
2023-01-01T10:59:54.154Z,99.90
2023-01-01T11:02:27.473Z,99.90
2023-01-01T11:05:17.639Z,99.90
2023-01-01T11:07:52.641Z,99.90
2023-01-01T11:10:27.878Z,99.90
2023-01-01T11:13:05.542Z,99.90
2023-01-01T11:15:39.472Z,99.90
2023-01-01T11:18:13.084Z,99.90
2023-01-01T11:20:50.844Z,99.90
2023-01-01T11:23:32.448Z,99.90
2023-01-01T11:26:06.099Z,99.90
2023-01-01T11:28:40.361Z,99.90
2023-01-01T11:31:14.310Z,99.90
2023-01-01T11:33:48.198Z,99.90
2023-01-01T11:36:24.483Z,99.90
2023-01-01T11:39:17.745Z,99.90
2023-01-01T11:41:51.446Z,99.90
2023-01-01T11:44:30.558Z,99.90
2023-01-01T11:47:02.683Z,99.90
2023-01-01T11:49:34.562Z,99.90
2023-01-01T11:52:32.101Z,99.90
2023-01-01T11:55:10.503Z,99.90
2023-01-01T11:57:45.735Z,99.90
2023-01-01T12:00:22.153Z,99.90
2023-01-01T12:03:01.179Z,99.90
2023-01-01T12:05:38.720Z,99.90
2023-01-01T12:08:15.021Z,99.90
2023-01-01T12:10:51.607Z,99.90
2023-01-01T12:13:25.793Z,99.90
2023-01-01T12:16:02.760Z,99.90
2023-01-01T12:18:38.856Z,99.90
2023-01-01T12:21:15.416Z,99.90
2023-01-01T12:23:47.667Z,99.90
2023-01-01T12:26:23.700Z,99.90
2023-01-01T12:29:04.715Z,99.90
2023-01-01T12:31:44.634Z,99.90
2023-01-01T12:34:20.754Z,99.90
2023-01-01T12:36:59.041Z,99.90
2023-01-01T12:39:50.936Z,99.90
2023-01-01T12:42:27.674Z,99.90
2023-01-01T12:45:08.896Z,99.90
2023-01-01T12:47:49.683Z,99.90
2023-01-01T12:50:29.397Z,99.90
2023-01-01T12:53:20.603Z,99.90
2023-01-01T12:56:23.459Z,99.90
2023-01-01T12:59:10.390Z,99.90
2023-01-01T13:14:21.658Z,99.90
2023-01-01T13:20:14.416Z,93.90
2023-01-01T13:22:51.851Z,92.10
2023-01-01T13:25:28.776Z,90.10
2023-01-01T13:28:04.783Z,86.50
2023-01-01T13:30:49.508Z,85.70
2023-01-01T13:33:27.116Z,84.30
2023-01-01T13:36:17.791Z,83.30
2023-01-01T13:38:49.803Z,81.50
2023-01-01T13:41:35.395Z,77.00
2023-01-01T13:44:21.347Z,75.20
2023-01-01T13:47:00.233Z,75.20
2023-01-01T13:49:37.523Z,74.70
2023-01-01T13:52:29.320Z,75.60
2023-01-01T13:55:15.808Z,75.90
2023-01-01T13:58:00.137Z,76.50
2023-01-01T14:00:37.488Z,76.80
2023-01-01T14:03:16.137Z,77.20
2023-01-01T14:05:49.680Z,78.20
2023-01-01T14:08:28.772Z,79.30
2023-01-01T14:11:03.610Z,80.20
2023-01-01T14:13:41.697Z,81.00
2023-01-01T14:16:14.825Z,81.80
2023-01-01T14:18:47.670Z,82.40
2023-01-01T14:21:20.882Z,83.10
2023-01-01T14:23:56.992Z,83.70
2023-01-01T14:26:30.309Z,84.30
2023-01-01T14:29:08.051Z,84.70
2023-01-01T14:31:42.221Z,85.10
2023-01-01T14:34:15.805Z,85.50
2023-01-01T14:36:51.128Z,86.00
2023-01-01T14:39:29.295Z,86.40
2023-01-01T14:42:02.255Z,86.80
2023-01-01T14:44:37.171Z,87.10
2023-01-01T14:47:19.394Z,87.50
2023-01-01T15:04:30.366Z,89.20
2023-01-01T15:07:06.776Z,89.40
2023-01-01T15:09:44.008Z,89.50
2023-01-01T15:12:29.364Z,89.70
2023-01-01T15:15:26.587Z,89.80
2023-01-01T15:18:06.535Z,89.80
2023-01-01T15:27:19.089Z,90.30
2023-01-01T15:30:16.326Z,90.30
2023-01-01T15:35:56.409Z,90.30
2023-01-01T15:38:36.519Z,90.20
2023-01-01T15:41:42.705Z,90.30
2023-01-01T15:44:26.415Z,90.30
2023-01-01T15:47:05.215Z,90.30
2023-01-01T15:49:36.847Z,90.40
2023-01-01T15:52:15.714Z,90.40
2023-01-01T15:54:47.853Z,90.50
2023-01-01T15:57:20.985Z,90.50
2023-01-01T15:59:53.650Z,90.50
2023-01-01T16:02:27.731Z,90.50
2023-01-01T16:05:00.014Z,90.60
2023-01-01T16:07:33.032Z,90.70
2023-01-01T16:10:12.939Z,90.70
2023-01-01T16:12:44.607Z,90.80
2023-01-01T16:15:16.585Z,90.80
2023-01-01T16:17:48.242Z,91.20
2023-01-01T16:20:21.985Z,91.00
2023-01-01T16:23:00.100Z,91.40
2023-01-01T16:25:31.728Z,92.60
2023-01-01T16:28:04.133Z,93.40
2023-01-01T16:30:35.785Z,94.00
2023-01-01T16:33:12.866Z,94.20
2023-01-01T16:35:44.806Z,94.00
2023-01-01T16:38:22.952Z,93.70
2023-01-01T16:40:55.535Z,93.20
2023-01-01T16:43:28.080Z,92.60
2023-01-01T16:46:02.287Z,92.20
2023-01-01T16:48:34.566Z,91.80
2023-01-01T16:51:06.974Z,91.40
2023-01-01T16:53:47.592Z,91.10
2023-01-01T16:56:19.284Z,90.70
2023-01-01T16:58:54.278Z,90.40
2023-01-01T17:01:32.032Z,90.00
2023-01-01T17:04:03.767Z,89.40
2023-01-01T17:07:05.553Z,88.70
2023-01-01T17:09:41.135Z,88.10
2023-01-01T17:12:13.038Z,87.40
2023-01-01T17:14:46.995Z,86.70
2023-01-01T17:17:26.951Z,86.10
2023-01-01T17:20:01.798Z,85.70
2023-01-01T17:22:34.597Z,85.20
2023-01-01T17:25:09.212Z,84.80
2023-01-01T17:27:41.025Z,84.60
2023-01-01T17:30:13.263Z,84.80
2023-01-01T17:32:44.932Z,84.80
2023-01-01T17:35:16.539Z,84.50
2023-01-01T17:37:48.173Z,84.20
2023-01-01T17:40:21.523Z,84.00
2023-01-01T17:42:55.041Z,83.60
2023-01-01T17:45:26.883Z,83.40
2023-01-01T17:47:58.638Z,83.10
2023-01-01T17:50:31.429Z,83.10
2023-01-01T17:53:03.175Z,83.10
2023-01-01T17:55:36.300Z,83.10
2023-01-01T17:58:07.935Z,82.90
2023-01-01T18:00:44.338Z,82.50
2023-01-01T18:03:23.016Z,82.30
2023-01-01T18:06:03.133Z,82.30
2023-01-01T18:08:42.432Z,82.30
2023-01-01T18:11:36.963Z,82.40
2023-01-01T18:14:27.654Z,82.60
2023-01-01T18:17:07.414Z,82.80
2023-01-01T18:19:41.356Z,82.80
2023-01-01T18:22:30.297Z,82.60
2023-01-01T18:25:21.022Z,82.50
2023-01-01T18:30:49.938Z,82.40
2023-01-01T18:36:37.816Z,82.60
2023-01-01T18:39:19.069Z,82.80
2023-01-01T18:42:12.461Z,82.90
2023-01-01T18:44:45.894Z,83.10
2023-01-01T18:47:19.033Z,83.10
2023-01-01T18:49:52.487Z,83.20
2023-01-01T18:52:25.779Z,83.30
2023-01-01T18:55:01.214Z,83.40
2023-01-01T18:57:33.709Z,83.40
2023-01-01T19:00:17.760Z,83.40
2023-01-01T19:02:53.416Z,83.10
2023-01-01T19:05:27.373Z,83.20
2023-01-01T19:08:11.955Z,82.80
2023-01-01T19:10:44.618Z,82.80
2023-01-01T19:13:17.917Z,82.70
2023-01-01T19:15:52.926Z,82.60
2023-01-01T19:18:28.039Z,82.50
2023-01-01T19:21:01.728Z,82.10
2023-01-01T19:23:35.019Z,82.00
2023-01-01T19:26:11.551Z,82.10
2023-01-01T19:28:46.818Z,82.20
2023-01-01T20:08:31.502Z,80.90
2023-01-01T20:11:30.507Z,80.90
2023-01-01T20:21:35.026Z,81.00
2023-01-01T20:24:06.677Z,80.90
2023-01-01T20:26:38.311Z,80.90
2023-01-01T20:29:21.929Z,81.00
2023-01-01T20:31:54.129Z,81.00
2023-01-01T20:34:26.209Z,81.00
2023-01-01T20:37:17.813Z,80.90
2023-01-01T20:39:50.115Z,80.80
2023-01-01T20:42:21.815Z,80.90
2023-01-01T20:44:53.525Z,80.60
2023-01-01T20:47:25.241Z,80.50
2023-01-01T20:49:56.843Z,80.50
2023-01-01T20:52:29.768Z,80.60
2023-01-01T20:55:01.381Z,80.60
2023-01-01T20:57:33.220Z,80.70
2023-01-01T21:00:06.885Z,80.80
2023-01-01T21:02:38.664Z,80.80
2023-01-01T21:05:10.337Z,80.70
2023-01-01T21:07:43.268Z,80.70
2023-01-01T21:10:14.933Z,80.70
2023-01-01T21:12:46.508Z,80.60
2023-01-01T21:15:19.104Z,80.70
2023-01-01T21:17:51.056Z,80.60
2023-01-01T21:20:22.771Z,80.70
2023-01-01T21:22:58.565Z,80.50
2023-01-01T21:26:01.257Z,80.50
2023-01-01T21:28:25.731Z,80.50
2023-01-01T21:30:59.674Z,80.50
2023-01-01T21:33:31.939Z,80.50
2023-01-01T21:36:10.453Z,80.40
2023-01-01T21:38:43.552Z,80.40
2023-01-01T21:41:22.482Z,80.30
2023-01-01T21:43:54.757Z,80.40
2023-01-01T21:46:33.766Z,80.40
2023-01-01T21:49:12.562Z,80.30
2023-01-01T21:51:47.167Z,80.70
2023-01-01T21:54:22.050Z,80.20
2023-01-01T21:56:55.142Z,80.10
2023-01-01T21:59:34.007Z,80.00
2023-01-01T22:02:28.865Z,80.00
2023-01-01T22:05:02.170Z,79.90
2023-01-01T22:10:32.399Z,79.80
2023-01-01T22:13:12.035Z,79.80
2023-01-01T22:15:43.973Z,79.80
2023-01-01T22:18:18.325Z,79.80
2023-01-01T22:20:50.566Z,79.80
2023-01-01T22:23:24.435Z,77.60
2023-01-01T22:25:57.529Z,77.00
2023-01-01T22:28:31.859Z,77.60
2023-01-01T22:31:03.531Z,78.40
2023-01-01T22:33:37.142Z,79.00
2023-01-01T22:36:11.088Z,79.30
2023-01-01T22:38:42.739Z,79.40
2023-01-01T22:41:15.719Z,79.40
2023-01-01T22:43:48.686Z,79.40
2023-01-01T22:46:22.543Z,79.20
2023-01-01T22:48:58.271Z,79.10
2023-01-01T22:51:34.152Z,79.00
2023-01-01T22:54:05.781Z,78.90
2023-01-01T22:56:38.729Z,78.70
2023-01-01T22:59:10.321Z,78.60
2023-01-01T23:01:42.077Z,78.60
2023-01-01T23:04:13.885Z,78.60
2023-01-01T23:06:45.775Z,78.60
2023-01-01T23:09:17.537Z,78.70
2023-01-01T23:11:50.494Z,78.70
2023-01-01T23:14:40.818Z,78.70
2023-01-01T23:17:12.437Z,78.80
2023-01-01T23:19:44.013Z,78.90
2023-01-01T23:22:16.712Z,78.90
2023-01-01T23:24:48.333Z,79.40
2023-01-01T23:27:21.341Z,78.90
2023-01-01T23:29:53.941Z,78.90
2023-01-01T23:32:25.707Z,78.90
2023-01-01T23:34:57.345Z,78.90
2023-01-01T23:37:29.034Z,78.90
2023-01-01T23:40:00.670Z,78.90
2023-01-01T23:42:33.633Z,78.90
2023-01-01T23:45:05.858Z,78.80
2023-01-01T23:47:37.640Z,78.80
2023-01-01T23:50:09.472Z,78.80
2023-01-01T23:52:41.149Z,78.80
2023-01-01T23:55:12.777Z,78.90
2023-01-01T23:57:45.689Z,79.00
